Time;durP1;ratioP1;P1;durP2;ratioP2;P2;SDS_P1;SDS_P2;PMS_P1;PMS_P2;Temp;Humidity;BMP_temperature;BMP_pressure;BME280_temperature;BME280_humidity;BME280_pressure;Samples;Min_cycle;Max_cycle;Signal;HPM_P1;HPM_P2
2021/08/10 00:02:23;;;;;;;1.25;0.70;;;;;;;;;;5086384;28;20020;-57
2021/08/10 00:04:50;;;;;;;0.88;0.80;;;;;;;;;;5085552;28;20050;-57
2021/08/10 00:07:16;;;;;;;0.70;0.70;;;;;;;;;;5086323;28;20016;-56
2021/08/10 00:09:43;;;;;;;0.70;0.70;;;;;;;;;;5085026;28;20016;-57
2021/08/10 00:12:10;;;;;;;0.77;0.65;;;;;;;;;;5086905;28;20028;-57
2021/08/10 00:14:36;;;;;;;0.95;0.80;;;;;;;;;;5086169;28;20576;-57
2021/08/10 00:17:02;;;;;;;0.80;0.80;;;;;;;;;;5085150;28;20028;-57
2021/08/10 00:19:28;;;;;;;0.90;0.80;;;;;;;;;;5085974;28;20040;-57
2021/08/10 00:21:55;;;;;;;1.17;0.98;;;;;;;;;;5086215;28;20030;-57
2021/08/10 00:24:21;;;;;;;0.95;0.80;;;;;;;;;;5086072;28;20032;-57
2021/08/10 00:26:47;;;;;;;0.65;0.65;;;;;;;;;;5085709;28;20066;-58
2021/08/10 00:29:13;;;;;;;1.30;0.70;;;;;;;;;;5086028;28;20028;-58
2021/08/10 00:31:39;;;;;;;0.90;0.90;;;;;;;;;;5086509;28;20023;-58
2021/08/10 00:34:05;;;;;;;1.10;0.88;;;;;;;;;;5085557;28;20043;-57
2021/08/10 00:36:31;;;;;;;0.68;0.60;;;;;;;;;;5085987;28;20084;-57
2021/08/10 00:38:57;;;;;;;1.30;1.05;;;;;;;;;;5085832;28;20061;-58
2021/08/10 00:41:23;;;;;;;0.73;0.70;;;;;;;;;;5086005;28;20161;-57
2021/08/10 00:43:49;;;;;;;0.65;0.65;;;;;;;;;;5085485;28;20111;-57
2021/08/10 00:46:16;;;;;;;0.82;0.82;;;;;;;;;;5085605;28;20494;-57
2021/08/10 00:48:43;;;;;;;1.02;0.70;;;;;;;;;;5085321;28;20024;-57
2021/08/10 00:51:10;;;;;;;1.02;0.90;;;;;;;;;;5086301;28;20016;-57
2021/08/10 00:53:37;;;;;;;0.80;0.70;;;;;;;;;;5085650;28;20081;-57
2021/08/10 00:56:07;;;;;;;0.70;0.70;;;;;;;;;;5085332;28;20123;-57
2021/08/10 00:58:33;;;;;;;0.90;0.80;;;;;;;;;;5085442;28;20031;-57
2021/08/10 01:01:01;;;;;;;0.93;0.80;;;;;;;;;;5085598;28;20028;-57
2021/08/10 01:03:27;;;;;;;0.80;0.80;;;;;;;;;;5085250;28;20118;-57
2021/08/10 01:05:53;;;;;;;1.42;0.90;;;;;;;;;;5085142;28;20102;-57
2021/08/10 01:08:35;;;;;;;2.47;1.00;;;;;;;;;;5085681;28;20052;-57
2021/08/10 01:11:15;;;;;;;0.70;0.70;;;;;;;;;;5085323;28;20046;-57
2021/08/10 01:13:45;;;;;;;1.60;0.82;;;;;;;;;;5085349;28;20032;-57
2021/08/10 01:16:23;;;;;;;1.15;0.80;;;;;;;;;;5085666;28;20203;-57
2021/08/10 01:18:52;;;;;;;0.70;0.70;;;;;;;;;;5084693;28;20036;-57
2021/08/10 01:21:37;;;;;;;1.48;0.90;;;;;;;;;;5085295;28;20520;-57
2021/08/10 01:24:10;;;;;;;0.60;0.60;;;;;;;;;;5084890;28;20056;-57
2021/08/10 01:26:53;;;;;;;1.50;0.90;;;;;;;;;;5085255;28;20032;-57
2021/08/10 01:29:45;;;;;;;0.90;0.90;;;;;;;;;;5085228;28;20027;-57
2021/08/10 01:32:11;;;;;;;0.95;0.90;;;;;;;;;;5054570;28;20089;-57
2021/08/10 01:34:40;;;;;;;0.90;0.68;;;;;;;;;;5085664;28;20027;-58
2021/08/10 01:37:09;;;;;;;0.70;0.70;;;;;;;;;;5085244;28;20035;-58
2021/08/10 01:39:36;;;;;;;0.90;0.85;;;;;;;;;;5084921;28;20028;-57
2021/08/10 01:42:02;;;;;;;1.35;0.75;;;;;;;;;;5084853;28;20028;-58
2021/08/10 01:44:29;;;;;;;0.75;0.75;;;;;;;;;;5085035;28;20020;-57
2021/08/10 01:46:57;;;;;;;1.20;0.90;;;;;;;;;;5084631;28;20036;-56
2021/08/10 01:49:24;;;;;;;1.20;0.90;;;;;;;;;;5085043;28;20017;-57
2021/08/10 01:51:52;;;;;;;1.20;0.88;;;;;;;;;;5084882;28;20020;-57
2021/08/10 01:54:19;;;;;;;0.93;0.82;;;;;;;;;;5084928;28;20031;-57
2021/08/10 01:56:45;;;;;;;1.13;1.02;;;;;;;;;;5084697;28;20110;-57
2021/08/10 01:59:12;;;;;;;1.10;0.77;;;;;;;;;;5085519;28;20057;-57
2021/08/10 02:01:39;;;;;;;1.25;1.00;;;;;;;;;;5085404;28;20024;-57
2021/08/10 02:04:06;;;;;;;1.30;0.95;;;;;;;;;;5084758;28;20099;-58
2021/08/10 02:06:32;;;;;;;0.80;0.80;;;;;;;;;;5085038;28;20481;-57
2021/08/10 02:09:00;;;;;;;0.75;0.75;;;;;;;;;;5084578;28;20021;-57
2021/08/10 02:11:26;;;;;;;0.60;0.60;;;;;;;;;;5084947;28;20028;-58
2021/08/10 02:13:53;;;;;;;0.70;0.70;;;;;;;;;;5084699;28;20401;-57
2021/08/10 02:16:19;;;;;;;0.80;0.80;;;;;;;;;;5084390;28;20028;-57
2021/08/10 02:18:46;;;;;;;0.85;0.77;;;;;;;;;;5084201;28;20044;-57
2021/08/10 02:21:19;;;;;;;0.98;0.80;;;;;;;;;;5084632;28;20032;-57
2021/08/10 02:23:46;;;;;;;0.90;0.80;;;;;;;;;;5084016;28;20560;-57
2021/08/10 02:26:12;;;;;;;0.93;0.85;;;;;;;;;;5087755;28;20038;-57
2021/08/10 02:28:41;;;;;;;1.27;0.80;;;;;;;;;;5089045;28;20020;-57
2021/08/10 02:31:08;;;;;;;1.30;0.98;;;;;;;;;;5070488;28;20024;-57
2021/08/10 02:33:34;;;;;;;0.75;0.75;;;;;;;;;;5088284;28;20035;-57
2021/08/10 02:36:02;;;;;;;0.90;0.80;;;;;;;;;;5087933;28;20055;-57
2021/08/10 02:38:30;;;;;;;0.90;0.77;;;;;;;;;;5088490;28;20020;-58
2021/08/10 02:40:57;;;;;;;1.00;0.73;;;;;;;;;;5088350;28;20035;-57
2021/08/10 02:43:27;;;;;;;0.77;0.77;;;;;;;;;;5088322;28;20020;-57
2021/08/10 02:45:54;;;;;;;0.93;0.80;;;;;;;;;;5087730;28;20024;-57
2021/08/10 02:48:21;;;;;;;0.90;0.90;;;;;;;;;;5088086;28;20020;-57
2021/08/10 02:50:48;;;;;;;1.02;0.93;;;;;;;;;;5088217;28;20324;-57
2021/08/10 02:53:14;;;;;;;1.05;0.80;;;;;;;;;;5088126;28;20099;-57
2021/08/10 02:55:44;;;;;;;0.80;0.70;;;;;;;;;;5088187;28;20032;-57
2021/08/10 02:58:37;;;;;;;0.63;0.63;;;;;;;;;;5088555;28;20059;-57
2021/08/10 03:01:06;;;;;;;0.75;0.57;;;;;;;;;;5083636;28;20066;-57
2021/08/10 03:03:33;;;;;;;1.08;0.75;;;;;;;;;;5087873;28;20084;-56
2021/08/10 03:05:59;;;;;;;0.75;0.75;;;;;;;;;;5087335;28;20320;-57
2021/08/10 03:08:30;;;;;;;0.80;0.70;;;;;;;;;;5087829;28;20414;-57
2021/08/10 03:10:56;;;;;;;0.85;0.75;;;;;;;;;;5087400;28;20398;-57
2021/08/10 03:13:24;;;;;;;1.05;0.70;;;;;;;;;;5087585;28;20024;-57
2021/08/10 03:15:52;;;;;;;1.00;0.80;;;;;;;;;;5087466;28;20121;-57
2021/08/10 03:18:20;;;;;;;1.10;0.90;;;;;;;;;;5086912;28;20490;-57
2021/08/10 03:20:46;;;;;;;1.75;0.90;;;;;;;;;;5087102;28;20107;-57
2021/08/10 03:23:14;;;;;;;1.42;0.80;;;;;;;;;;5087814;28;20103;-57
2021/08/10 03:25:41;;;;;;;1.02;0.73;;;;;;;;;;5087674;28;20028;-57
2021/08/10 03:28:07;;;;;;;1.00;0.70;;;;;;;;;;5087301;28;20023;-57
2021/08/10 03:30:33;;;;;;;0.75;0.75;;;;;;;;;;5087371;28;20069;-57
2021/08/10 03:33:00;;;;;;;0.70;0.70;;;;;;;;;;5086970;28;20028;-57
2021/08/10 03:35:26;;;;;;;1.13;0.93;;;;;;;;;;5087109;28;20110;-57
2021/08/10 03:37:53;;;;;;;1.30;0.80;;;;;;;;;;5068259;28;20016;-57
2021/08/10 03:40:19;;;;;;;1.95;0.95;;;;;;;;;;5087279;28;20020;-56
2021/08/10 03:42:45;;;;;;;2.05;1.05;;;;;;;;;;5086758;28;20027;-57
2021/08/10 03:45:11;;;;;;;1.08;0.90;;;;;;;;;;5087498;28;20039;-57
2021/08/10 03:47:38;;;;;;;0.90;0.80;;;;;;;;;;5087563;28;20024;-56
2021/08/10 03:50:05;;;;;;;0.95;0.82;;;;;;;;;;5086748;28;20718;-57
2021/08/10 03:52:31;;;;;;;1.15;0.95;;;;;;;;;;5086844;28;20360;-57
2021/08/10 03:54:57;;;;;;;0.82;0.70;;;;;;;;;;5086372;28;20020;-56
2021/08/10 03:57:23;;;;;;;1.25;1.15;;;;;;;;;;5086509;28;20518;-55
2021/08/10 03:59:53;;;;;;;1.02;0.93;;;;;;;;;;5086540;28;20024;-56
2021/08/10 04:02:20;;;;;;;1.42;0.98;;;;;;;;;;5086511;28;20091;-56
2021/08/10 04:04:46;;;;;;;1.55;1.05;;;;;;;;;;5086212;28;20048;-56
2021/08/10 04:07:13;;;;;;;2.58;1.20;;;;;;;;;;5086605;28;20070;-56
2021/08/10 04:09:39;;;;;;;0.95;0.95;;;;;;;;;;5087209;28;20028;-57
2021/08/10 04:12:06;;;;;;;1.15;0.90;;;;;;;;;;5086446;28;20020;-56
2021/08/10 04:14:33;;;;;;;0.77;0.73;;;;;;;;;;5086453;28;20039;-56
2021/08/10 04:17:01;;;;;;;0.77;0.70;;;;;;;;;;5085475;28;20038;-57
2021/08/10 04:19:31;;;;;;;1.00;0.90;;;;;;;;;;5086327;28;20092;-57
2021/08/10 04:21:59;;;;;;;1.08;0.88;;;;;;;;;;5085955;28;20032;-57
2021/08/10 04:24:25;;;;;;;0.80;0.80;;;;;;;;;;5085888;28;20556;-56
2021/08/10 04:26:51;;;;;;;1.40;0.85;;;;;;;;;;5086002;28;20036;-57
2021/08/10 04:29:18;;;;;;;1.23;0.82;;;;;;;;;;5086262;28;20388;-56
2021/08/10 04:31:44;;;;;;;1.38;0.95;;;;;;;;;;5085660;28;20059;-57
2021/08/10 04:34:11;;;;;;;1.25;0.70;;;;;;;;;;5086632;28;20106;-57
2021/08/10 04:36:37;;;;;;;0.50;0.50;;;;;;;;;;5085972;28;20024;-56
2021/08/10 04:39:03;;;;;;;1.17;0.93;;;;;;;;;;5085389;28;20418;-57
2021/08/10 04:41:29;;;;;;;0.50;0.50;;;;;;;;;;5086088;28;20024;-56
2021/08/10 04:43:55;;;;;;;1.35;0.80;;;;;;;;;;5085592;28;20039;-55
2021/08/10 04:46:23;;;;;;;1.13;0.82;;;;;;;;;;5085535;28;20028;-55
2021/08/10 04:48:49;;;;;;;0.80;0.80;;;;;;;;;;5085206;28;20028;-57
2021/08/10 04:51:15;;;;;;;1.05;0.80;;;;;;;;;;5085688;28;20031;-56
2021/08/10 04:53:41;;;;;;;1.23;0.90;;;;;;;;;;5086100;28;20186;-56
2021/08/10 04:56:09;;;;;;;0.98;0.70;;;;;;;;;;5086107;28;20027;-56
2021/08/10 04:58:35;;;;;;;1.35;0.90;;;;;;;;;;5085508;28;20067;-57
2021/08/10 05:01:02;;;;;;;2.25;1.17;;;;;;;;;;5085359;28;20039;-56
2021/08/10 05:03:29;;;;;;;1.40;1.02;;;;;;;;;;5085631;28;20031;-56
2021/08/10 05:05:55;;;;;;;1.60;1.02;;;;;;;;;;5084960;28;20024;-55
2021/08/10 05:08:21;;;;;;;1.08;0.70;;;;;;;;;;5085511;28;20487;-54
2021/08/10 05:10:47;;;;;;;1.02;0.98;;;;;;;;;;5085281;28;20103;-55
2021/08/10 05:13:14;;;;;;;1.45;1.08;;;;;;;;;;5078252;28;20115;-55
2021/08/10 05:15:40;;;;;;;1.10;0.90;;;;;;;;;;5066601;28;20021;-56
2021/08/10 05:18:06;;;;;;;0.75;0.75;;;;;;;;;;5076273;28;20067;-56
2021/08/10 05:20:32;;;;;;;0.75;0.70;;;;;;;;;;5085241;28;20542;-56
2021/08/10 05:22:58;;;;;;;1.10;0.90;;;;;;;;;;5085029;28;20038;-56
2021/08/10 05:25:24;;;;;;;0.63;0.63;;;;;;;;;;5068443;28;20024;-56
2021/08/10 05:27:50;;;;;;;1.00;0.90;;;;;;;;;;5069166;28;20016;-56
2021/08/10 05:30:16;;;;;;;1.77;0.80;;;;;;;;;;5065942;28;20454;-56
2021/08/10 05:32:42;;;;;;;0.82;0.80;;;;;;;;;;5068407;28;20025;-56
2021/08/10 05:35:09;;;;;;;1.23;0.90;;;;;;;;;;5076639;28;20033;-54
2021/08/10 05:37:35;;;;;;;0.70;0.70;;;;;;;;;;5066325;28;20039;-55
2021/08/10 05:40:02;;;;;;;1.00;0.80;;;;;;;;;;5066079;28;20600;-55
2021/08/10 05:42:28;;;;;;;1.20;1.08;;;;;;;;;;5066350;28;20519;-55
2021/08/10 05:44:54;;;;;;;1.65;1.02;;;;;;;;;;5068259;28;20043;-55
2021/08/10 05:47:20;;;;;;;0.80;0.80;;;;;;;;;;5086511;28;20104;-55
2021/08/10 05:49:46;;;;;;;1.05;0.98;;;;;;;;;;5086409;28;20115;-55
2021/08/10 05:52:12;;;;;;;1.20;1.10;;;;;;;;;;5086537;28;20530;-54
2021/08/10 05:54:38;;;;;;;0.90;0.90;;;;;;;;;;5087036;28;20081;-54
2021/08/10 05:57:05;;;;;;;1.85;1.25;;;;;;;;;;5085670;28;20028;-55
2021/08/10 05:59:31;;;;;;;1.67;1.52;;;;;;;;;;5086297;28;20036;-55
2021/08/10 06:02:00;;;;;;;1.20;1.00;;;;;;;;;;5089990;28;20024;-53
2021/08/10 06:04:27;;;;;;;2.58;1.10;;;;;;;;;;5089165;28;20123;-55
2021/08/10 06:06:53;;;;;;;0.80;0.80;;;;;;;;;;5088608;28;20224;-55
2021/08/10 06:09:19;;;;;;;1.17;1.00;;;;;;;;;;5086524;28;20024;-55
2021/08/10 06:11:45;;;;;;;1.13;0.88;;;;;;;;;;5088708;28;20093;-55
2021/08/10 06:14:12;;;;;;;1.33;0.80;;;;;;;;;;5088769;28;20040;-56
2021/08/10 06:16:38;;;;;;;1.05;0.95;;;;;;;;;;5088380;28;20024;-55
2021/08/10 06:22:35;;;;;;;1.27;0.95;;;;;;;;;;5090435;28;20031;-56
2021/08/10 06:25:01;;;;;;;0.80;0.80;;;;;;;;;;5087115;28;20072;-56
2021/08/10 06:27:27;;;;;;;0.75;0.75;;;;;;;;;;5089972;28;20024;-55
2021/08/10 06:29:53;;;;;;;2.85;0.90;;;;;;;;;;5088545;28;20016;-56
2021/08/10 06:32:19;;;;;;;0.98;0.88;;;;;;;;;;5089711;28;20609;-56
2021/08/10 06:34:45;;;;;;;1.10;0.90;;;;;;;;;;5087155;28;20090;-56
2021/08/10 06:37:11;;;;;;;1.63;1.40;;;;;;;;;;5089693;28;20028;-56
2021/08/10 06:39:38;;;;;;;1.30;1.00;;;;;;;;;;5089543;28;20485;-56
2021/08/10 06:42:04;;;;;;;1.75;1.48;;;;;;;;;;5087844;28;20035;-56
2021/08/10 06:47:34;;;;;;;2.00;1.10;;;;;;;;;;5088559;28;20090;-55
2021/08/10 06:50:00;;;;;;;0.77;0.77;;;;;;;;;;5087833;28;20203;-55
2021/08/10 06:52:26;;;;;;;1.73;0.80;;;;;;;;;;5088764;28;20092;-55
2021/08/10 06:54:52;;;;;;;1.73;1.00;;;;;;;;;;5087368;28;20071;-55
2021/08/10 06:57:18;;;;;;;0.90;0.80;;;;;;;;;;5087197;28;20024;-54
2021/08/10 06:59:44;;;;;;;1.30;1.00;;;;;;;;;;5088353;28;20030;-55
2021/08/10 07:02:10;;;;;;;1.00;0.80;;;;;;;;;;5085909;28;20023;-54
2021/08/10 07:04:36;;;;;;;0.80;0.80;;;;;;;;;;5086970;28;20097;-55
2021/08/10 07:07:06;;;;;;;0.90;0.85;;;;;;;;;;5088060;28;20039;-53
2021/08/10 07:09:32;;;;;;;1.23;0.98;;;;;;;;;;5085293;28;20032;-55
2021/08/10 07:11:58;;;;;;;1.40;0.88;;;;;;;;;;5085998;28;20479;-55
2021/08/10 07:14:24;;;;;;;1.38;0.82;;;;;;;;;;5087327;28;20035;-53
2021/08/10 07:16:50;;;;;;;0.85;0.82;;;;;;;;;;5088106;28;20028;-54
2021/08/10 07:19:16;;;;;;;1.27;0.90;;;;;;;;;;5068879;28;20039;-55
2021/08/10 07:21:43;;;;;;;1.77;1.00;;;;;;;;;;5084798;28;20028;-55
2021/08/10 07:24:09;;;;;;;0.98;0.80;;;;;;;;;;5083545;28;20040;-55
2021/08/10 07:26:35;;;;;;;0.70;0.70;;;;;;;;;;5083461;28;20031;-53
2021/08/10 07:29:02;;;;;;;0.70;0.60;;;;;;;;;;5088045;28;20487;-54
2021/08/10 07:31:28;;;;;;;0.77;0.70;;;;;;;;;;5084539;28;20051;-55
2021/08/10 07:33:54;;;;;;;0.93;0.65;;;;;;;;;;5068007;28;20465;-54
2021/08/10 07:36:20;;;;;;;0.75;0.63;;;;;;;;;;5080238;28;20020;-56
2021/08/10 07:38:46;;;;;;;0.88;0.82;;;;;;;;;;5088767;28;20513;-55
2021/08/10 07:41:12;;;;;;;0.63;0.63;;;;;;;;;;5086830;28;20423;-53
2021/08/10 07:43:39;;;;;;;1.05;0.85;;;;;;;;;;5071909;28;20033;-54
2021/08/10 07:46:05;;;;;;;0.75;0.70;;;;;;;;;;5070828;28;20027;-53
2021/08/10 07:48:31;;;;;;;0.70;0.70;;;;;;;;;;5088421;28;20032;-56
2021/08/10 07:50:58;;;;;;;1.98;0.75;;;;;;;;;;5087720;28;20020;-54
2021/08/10 07:53:24;;;;;;;0.82;0.77;;;;;;;;;;5088219;28;20088;-53
2021/08/10 07:55:51;;;;;;;0.73;0.70;;;;;;;;;;5086877;28;20425;-54
2021/08/10 07:58:18;;;;;;;0.85;0.80;;;;;;;;;;5087908;28;20035;-54
2021/08/10 08:00:45;;;;;;;0.80;0.80;;;;;;;;;;5087438;28;20031;-53
2021/08/10 08:03:11;;;;;;;0.80;0.80;;;;;;;;;;5087710;28;20040;-56
2021/08/10 08:05:37;;;;;;;1.00;0.73;;;;;;;;;;5086962;28;20017;-56
2021/08/10 08:08:03;;;;;;;1.17;0.77;;;;;;;;;;5085071;28;20032;-56
2021/08/10 08:10:29;;;;;;;1.00;0.90;;;;;;;;;;5087819;28;20027;-56
2021/08/10 08:12:56;;;;;;;0.50;0.50;;;;;;;;;;5087000;28;20038;-56
2021/08/10 08:15:22;;;;;;;1.00;0.90;;;;;;;;;;5087697;28;20040;-56
2021/08/10 08:17:48;;;;;;;0.70;0.70;;;;;;;;;;5087172;28;20038;-52
2021/08/10 08:20:14;;;;;;;0.63;0.60;;;;;;;;;;5087964;28;20042;-50
2021/08/10 08:22:40;;;;;;;0.90;0.80;;;;;;;;;;5086864;28;20039;-53
2021/08/10 08:25:07;;;;;;;0.63;0.63;;;;;;;;;;5087355;28;20035;-54
2021/08/10 08:27:33;;;;;;;0.65;0.65;;;;;;;;;;5087703;28;20501;-53
2021/08/10 08:29:59;;;;;;;0.60;0.60;;;;;;;;;;5087087;28;20378;-55
2021/08/10 08:32:25;;;;;;;0.70;0.70;;;;;;;;;;5087390;28;20024;-54
2021/08/10 08:34:51;;;;;;;1.17;0.73;;;;;;;;;;5087210;28;20421;-53
2021/08/10 08:37:17;;;;;;;0.63;0.63;;;;;;;;;;5088025;28;20513;-54
2021/08/10 08:39:43;;;;;;;0.60;0.60;;;;;;;;;;5087173;28;20438;-54
2021/08/10 08:42:12;;;;;;;0.43;0.43;;;;;;;;;;5087092;28;20112;-54
2021/08/10 08:44:38;;;;;;;0.40;0.40;;;;;;;;;;5087011;28;20023;-53
2021/08/10 08:47:05;;;;;;;0.80;0.55;;;;;;;;;;5087026;28;20066;-52
2021/08/10 08:49:32;;;;;;;0.60;0.60;;;;;;;;;;5086305;28;20062;-53
2021/08/10 08:52:02;;;;;;;0.57;0.57;;;;;;;;;;5086701;28;20028;-54
2021/08/10 08:54:32;;;;;;;0.68;0.68;;;;;;;;;;5087202;28;20425;-54
2021/08/10 08:56:58;;;;;;;0.70;0.60;;;;;;;;;;5086481;28;20024;-54
2021/08/10 08:59:25;;;;;;;0.40;0.40;;;;;;;;;;5086888;28;20052;-54
2021/08/10 09:01:54;;;;;;;0.45;0.45;;;;;;;;;;5077944;28;20040;-53
2021/08/10 09:04:21;;;;;;;0.60;0.60;;;;;;;;;;5080422;28;20406;-54
2021/08/10 09:06:48;;;;;;;0.45;0.45;;;;;;;;;;5087367;28;20020;-51
2021/08/10 09:09:21;;;;;;;0.32;0.32;;;;;;;;;;5078387;28;20028;-54
2021/08/10 09:11:52;;;;;;;0.80;0.60;;;;;;;;;;5086063;28;20036;-54
2021/08/10 09:14:18;;;;;;;0.40;0.40;;;;;;;;;;5079926;28;20036;-51
2021/08/10 09:17:02;;;;;;;1.70;0.55;;;;;;;;;;5076048;28;20023;-55
2021/08/10 09:19:28;;;;;;;;;;;;;;;;;;5087940;28;20040;-54
2021/08/10 09:22:11;;;;;;;0.63;0.40;;;;;;;;;;5074743;28;19974;-55
2021/08/10 09:24:41;;;;;;;0.50;0.50;;;;;;;;;;5079358;28;20028;-54
2021/08/10 09:27:21;;;;;;;0.40;0.40;;;;;;;;;;5084933;28;20058;-54
2021/08/10 09:29:47;;;;;;;0.73;0.52;;;;;;;;;;5080618;28;20027;-54
2021/08/10 09:32:16;;;;;;;0.98;0.60;;;;;;;;;;5070671;28;20399;-53
2021/08/10 09:34:42;;;;;;;0.73;0.68;;;;;;;;;;5066812;28;20094;-52
2021/08/10 09:37:14;;;;;;;0.70;0.50;;;;;;;;;;5067109;28;20424;-54
2021/08/10 09:39:40;;;;;;;0.60;0.60;;;;;;;;;;5073143;28;20103;-53
2021/08/10 09:42:10;;;;;;;0.70;0.70;;;;;;;;;;5086757;28;20038;-53
2021/08/10 09:44:36;;;;;;;1.10;0.80;;;;;;;;;;5085787;28;20566;-52
2021/08/10 09:47:03;;;;;;;1.02;0.93;;;;;;;;;;5075265;28;20056;-54
2021/08/10 09:49:45;;;;;;;0.70;0.70;;;;;;;;;;5066492;28;20028;-52
2021/08/10 09:52:27;;;;;;;0.80;0.70;;;;;;;;;;5066860;28;20105;-51
2021/08/10 09:54:53;;;;;;;0.50;0.50;;;;;;;;;;5077835;28;20506;-52
2021/08/10 09:57:19;;;;;;;0.60;0.60;;;;;;;;;;5074203;28;20038;-53
2021/08/10 09:59:46;;;;;;;0.85;0.60;;;;;;;;;;5087246;28;20079;-54
2021/08/10 10:02:19;;;;;;;0.60;0.60;;;;;;;;;;5087032;28;20024;-53
2021/08/10 10:04:52;;;;;;;0.43;0.43;;;;;;;;;;5086548;28;20666;-53
2021/08/10 10:07:18;;;;;;;0.40;0.40;;;;;;;;;;5087890;28;20027;-54
2021/08/10 10:09:45;;;;;;;0.60;0.60;;;;;;;;;;5074602;28;20483;-54
2021/08/10 10:12:11;;;;;;;0.40;0.40;;;;;;;;;;5048827;28;20372;-54
2021/08/10 10:14:41;;;;;;;0.63;0.60;;;;;;;;;;5057108;28;20024;-54
2021/08/10 10:17:10;;;;;;;0.60;0.60;;;;;;;;;;5081765;28;20028;-53
2021/08/10 10:19:37;;;;;;;0.60;0.60;;;;;;;;;;5079923;28;20107;-50
2021/08/10 10:22:04;;;;;;;0.50;0.40;;;;;;;;;;5085152;28;20354;-51
2021/08/10 10:24:35;;;;;;;1.00;0.70;;;;;;;;;;5071721;28;20498;-51
2021/08/10 10:27:06;;;;;;;0.70;0.57;;;;;;;;;;5085851;28;20110;-50
2021/08/10 10:29:32;;;;;;;1.88;1.00;;;;;;;;;;5084925;28;20028;-52
2021/08/10 10:31:59;;;;;;;1.17;0.77;;;;;;;;;;5078868;28;20100;-50
2021/08/10 10:34:25;;;;;;;1.00;0.90;;;;;;;;;;5081808;28;20032;-53
2021/08/10 10:36:52;;;;;;;0.80;0.80;;;;;;;;;;5085897;28;20056;-52
2021/08/10 10:39:28;;;;;;;1.17;0.90;;;;;;;;;;5083945;28;20029;-54
2021/08/10 10:41:55;;;;;;;0.93;0.70;;;;;;;;;;5082315;28;20036;-54
2021/08/10 10:44:40;;;;;;;1.27;0.88;;;;;;;;;;5084429;28;20067;-51
2021/08/10 10:47:37;;;;;;;0.85;0.85;;;;;;;;;;5085964;28;20024;-54
2021/08/10 10:50:05;;;;;;;0.80;0.80;;;;;;;;;;5071163;28;20130;-55
2021/08/10 10:52:32;;;;;;;1.38;0.90;;;;;;;;;;5088960;28;20028;-53
2021/08/10 10:54:59;;;;;;;1.15;1.00;;;;;;;;;;5081687;28;21202;-53
2021/08/10 10:57:31;;;;;;;0.70;0.70;;;;;;;;;;5087144;28;20502;-53
2021/08/10 11:00:03;;;;;;;0.80;0.63;;;;;;;;;;5089102;28;20042;-53
2021/08/10 11:02:30;;;;;;;0.80;0.80;;;;;;;;;;5089093;28;20081;-53
2021/08/10 11:05:05;;;;;;;0.55;0.55;;;;;;;;;;5076229;28;20024;-52
2021/08/10 11:07:38;;;;;;;0.50;0.50;;;;;;;;;;5089065;28;20093;-53
2021/08/10 11:10:07;;;;;;;0.60;0.60;;;;;;;;;;5089186;28;20031;-54
2021/08/10 11:12:36;;;;;;;0.82;0.82;;;;;;;;;;5088250;28;20405;-54
2021/08/10 11:15:03;;;;;;;0.60;0.60;;;;;;;;;;5085443;28;20032;-53
2021/08/10 11:17:29;;;;;;;0.50;0.50;;;;;;;;;;5086083;28;20032;-51
2021/08/10 11:19:55;;;;;;;0.60;0.60;;;;;;;;;;5088638;28;20043;-53
2021/08/10 11:22:22;;;;;;;0.55;0.55;;;;;;;;;;5089085;28;20032;-54
2021/08/10 11:24:50;;;;;;;1.05;0.70;;;;;;;;;;5087722;28;20024;-54
2021/08/10 11:27:36;;;;;;;0.82;0.65;;;;;;;;;;5083401;28;20464;-54
2021/08/10 11:30:04;;;;;;;0.57;0.55;;;;;;;;;;5080981;28;20047;-55
2021/08/10 11:32:36;;;;;;;0.60;0.60;;;;;;;;;;5088658;28;20055;-54
2021/08/10 11:35:20;;;;;;;0.82;0.82;;;;;;;;;;5082767;28;20040;-56
2021/08/10 11:38:07;;;;;;;0.70;0.70;;;;;;;;;;5080152;28;20056;-54
2021/08/10 11:40:51;;;;;;;0.50;0.50;;;;;;;;;;5068379;28;20051;-54
2021/08/10 11:43:18;;;;;;;0.70;0.70;;;;;;;;;;5101270;28;20042;-55
2021/08/10 11:45:44;;;;;;;0.75;0.75;;;;;;;;;;5092444;28;20070;-55
2021/08/10 11:48:10;;;;;;;0.60;0.60;;;;;;;;;;5083419;28;20032;-54
2021/08/10 11:50:36;;;;;;;0.60;0.60;;;;;;;;;;5071010;28;20446;-54
2021/08/10 11:53:03;;;;;;;0.60;0.60;;;;;;;;;;5100210;28;20044;-55
2021/08/10 11:55:33;;;;;;;0.70;0.70;;;;;;;;;;5086864;28;20622;-54
2021/08/10 11:58:01;;;;;;;0.65;0.65;;;;;;;;;;5081677;28;20061;-53
2021/08/10 12:00:28;;;;;;;0.50;0.50;;;;;;;;;;5070610;28;20032;-53
2021/08/10 12:02:55;;;;;;;0.40;0.40;;;;;;;;;;5075917;28;20663;-55
2021/08/10 12:05:21;;;;;;;0.40;0.40;;;;;;;;;;5082160;28;20772;-53
2021/08/10 12:07:58;;;;;;;0.57;0.57;;;;;;;;;;5085631;28;20031;-51
2021/08/10 12:10:26;;;;;;;0.47;0.47;;;;;;;;;;5080381;28;20398;-54
2021/08/10 12:12:53;;;;;;;0.50;0.50;;;;;;;;;;5067477;28;20028;-51
2021/08/10 12:15:35;;;;;;;0.73;0.70;;;;;;;;;;5078343;28;20031;-52
2021/08/10 12:18:01;;;;;;;1.50;0.70;;;;;;;;;;5069684;28;20029;-54
2021/08/10 12:20:28;;;;;;;0.50;0.50;;;;;;;;;;5069456;28;20032;-54
2021/08/10 12:23:04;;;;;;;0.50;0.50;;;;;;;;;;5082818;28;20036;-53
2021/08/10 12:25:31;;;;;;;0.40;0.40;;;;;;;;;;5084777;28;20078;-53
2021/08/10 12:28:04;;;;;;;0.40;0.40;;;;;;;;;;5084058;28;20028;-55
2021/08/10 12:30:32;;;;;;;0.57;0.57;;;;;;;;;;5086085;28;20082;-53
2021/08/10 12:33:18;;;;;;;0.55;0.55;;;;;;;;;;5078283;28;20024;-53
2021/08/10 12:35:59;;;;;;;0.60;0.60;;;;;;;;;;5081828;28;20020;-53
2021/08/10 12:38:27;;;;;;;0.60;0.60;;;;;;;;;;5084790;28;20028;-53
2021/08/10 12:40:53;;;;;;;0.55;0.55;;;;;;;;;;5080578;28;20019;-54
2021/08/10 12:43:20;;;;;;;0.60;0.60;;;;;;;;;;5084612;28;20024;-54
2021/08/10 12:45:46;;;;;;;10.82;0.98;;;;;;;;;;5071009;28;20096;-54
2021/08/10 12:48:31;;;;;;;15.85;2.08;;;;;;;;;;5069614;28;20111;-54
2021/08/10 12:50:57;;;;;;;10.82;1.60;;;;;;;;;;5088295;28;20024;-52
2021/08/10 12:53:27;;;;;;;3.03;1.08;;;;;;;;;;5087064;28;20020;-53
2021/08/10 12:55:53;;;;;;;1.23;0.90;;;;;;;;;;5087934;28;20058;-53
2021/08/10 12:58:19;;;;;;;3.75;1.10;;;;;;;;;;5087711;28;20421;-53
2021/08/10 13:01:05;;;;;;;3.70;1.13;;;;;;;;;;5085954;28;20123;-54
2021/08/10 13:03:32;;;;;;;9.13;2.13;;;;;;;;;;5086597;28;20418;-52
2021/08/10 13:05:58;;;;;;;6.28;1.88;;;;;;;;;;5076413;28;20028;-54
2021/08/10 13:08:25;;;;;;;1.73;1.00;;;;;;;;;;5073381;28;20020;-54
2021/08/10 13:10:52;;;;;;;0.93;0.82;;;;;;;;;;5066384;28;20096;-52
2021/08/10 13:13:25;;;;;;;1.38;0.70;;;;;;;;;;5067706;28;20060;-54
2021/08/10 13:15:52;;;;;;;0.70;0.70;;;;;;;;;;5084507;28;20024;-54
2021/08/10 13:18:21;;;;;;;1.13;0.85;;;;;;;;;;5087714;28;20344;-52
2021/08/10 13:20:58;;;;;;;0.85;0.73;;;;;;;;;;5070574;28;20024;-53
2021/08/10 13:23:26;;;;;;;0.80;0.80;;;;;;;;;;5071969;28;20079;-54
2021/08/10 13:25:57;;;;;;;0.70;0.70;;;;;;;;;;5067412;28;20020;-53
2021/08/10 13:28:25;;;;;;;0.68;0.68;;;;;;;;;;5080268;28;20110;-54
2021/08/10 13:31:07;;;;;;;0.95;0.82;;;;;;;;;;5086315;28;20111;-55
2021/08/10 13:33:33;;;;;;;1.02;0.80;;;;;;;;;;5081991;28;20542;-54
2021/08/10 13:36:00;;;;;;;0.70;0.70;;;;;;;;;;5074458;28;20036;-54
2021/08/10 13:38:26;;;;;;;0.60;0.60;;;;;;;;;;5084079;28;20681;-55
2021/08/10 13:40:53;;;;;;;0.85;0.52;;;;;;;;;;5086519;28;20562;-54
2021/08/10 13:43:19;;;;;;;0.75;0.75;;;;;;;;;;5081598;28;20580;-54
2021/08/10 13:45:45;;;;;;;0.80;0.80;;;;;;;;;;5082766;28;20023;-55
2021/08/10 13:48:12;;;;;;;0.93;0.80;;;;;;;;;;5086222;28;20039;-55
2021/08/10 13:50:38;;;;;;;0.60;0.60;;;;;;;;;;5087296;28;20107;-55
2021/08/10 13:53:05;;;;;;;1.08;0.65;;;;;;;;;;5088171;28;20024;-54
2021/08/10 13:55:32;;;;;;;1.00;0.90;;;;;;;;;;5076152;28;20116;-55
2021/08/10 13:58:01;;;;;;;1.38;0.80;;;;;;;;;;5071898;28;20051;-54
2021/08/10 14:00:27;;;;;;;0.93;0.80;;;;;;;;;;5087597;28;20127;-55
2021/08/10 14:02:55;;;;;;;0.80;0.80;;;;;;;;;;5087663;28;20067;-54
2021/08/10 14:05:21;;;;;;;0.70;0.70;;;;;;;;;;5087743;28;20016;-55
2021/08/10 14:07:47;;;;;;;1.00;0.90;;;;;;;;;;5087576;28;20455;-55
2021/08/10 14:10:14;;;;;;;0.90;0.90;;;;;;;;;;5087750;28;20059;-53
2021/08/10 14:12:40;;;;;;;1.10;1.00;;;;;;;;;;5087375;28;20027;-54
2021/08/10 14:15:07;;;;;;;1.08;0.98;;;;;;;;;;5087679;28;20040;-53
2021/08/10 14:17:33;;;;;;;0.80;0.80;;;;;;;;;;5087412;28;20032;-54
2021/08/10 14:19:59;;;;;;;0.82;0.82;;;;;;;;;;5084235;28;20043;-55
2021/08/10 14:22:25;;;;;;;1.17;1.08;;;;;;;;;;5089458;28;20027;-55
2021/08/10 14:24:52;;;;;;;1.48;1.02;;;;;;;;;;5088795;28;20089;-54
2021/08/10 14:27:19;;;;;;;1.08;0.98;;;;;;;;;;5089890;28;20032;-55
2021/08/10 14:29:45;;;;;;;0.95;0.88;;;;;;;;;;5090091;28;20090;-53
2021/08/10 14:32:11;;;;;;;1.17;1.08;;;;;;;;;;5089704;28;20494;-55
2021/08/10 14:34:37;;;;;;;1.60;1.00;;;;;;;;;;5089093;28;20028;-55
2021/08/10 14:37:04;;;;;;;0.90;0.90;;;;;;;;;;5088421;28;20120;-53
2021/08/10 14:39:30;;;;;;;1.20;1.00;;;;;;;;;;5089250;28;20137;-55
2021/08/10 14:41:56;;;;;;;0.85;0.85;;;;;;;;;;5089345;28;20032;-54
2021/08/10 14:44:22;;;;;;;1.02;0.90;;;;;;;;;;5089501;28;20019;-55
2021/08/10 14:46:51;;;;;;;1.27;1.17;;;;;;;;;;5089112;28;20522;-55
2021/08/10 14:49:17;;;;;;;1.00;0.90;;;;;;;;;;5090058;28;20531;-54
2021/08/10 14:51:43;;;;;;;1.05;1.00;;;;;;;;;;5089429;28;20039;-54
2021/08/10 14:54:09;;;;;;;1.20;1.10;;;;;;;;;;5086082;28;20032;-55
2021/08/10 14:56:35;;;;;;;1.00;0.98;;;;;;;;;;5089515;28;20032;-54